Time;durP1;ratioP1;P1;durP2;ratioP2;P2;SDS_P1;SDS_P2;PMS_P1;PMS_P2;Temp;Humidity;BMP_temperature;BMP_pressure;BME280_temperature;BME280_humidity;BME280_pressure;Samples;Min_cycle;Max_cycle;Signal;HPM_P1;HPM_P2
2022/05/22 00:03:08;;;;;;;0.50;0.50;;;;;;;19.98;57.08;97000.44;10167288;29;20079;-82
2022/05/22 00:08:28;;;;;;;0.50;0.50;;;;;;;19.97;57.15;97005.00;10197002;29;20063;-82
2022/05/22 00:13:51;;;;;;;0.60;0.60;;;;;;;19.98;56.99;97000.44;10193206;29;20055;-82
2022/05/22 00:19:19;;;;;;;1.75;0.60;;;;;;;19.97;57.00;96991.50;10173004;29;20049;-81
2022/05/22 00:24:39;;;;;;;0.65;0.63;;;;;;;19.97;57.01;96996.91;10201421;29;20052;-82
2022/05/22 00:29:59;;;;;;;0.60;0.60;;;;;;;19.95;57.03;96991.84;10167130;29;20060;-82
2022/05/22 00:35:18;;;;;;;0.70;0.70;;;;;;;19.95;57.00;96994.53;10200148;29;20048;-82
2022/05/22 00:40:37;;;;;;;0.60;0.60;;;;;;;19.95;56.90;96985.63;10171802;29;20075;-82
2022/05/22 00:45:58;;;;;;;0.60;0.60;;;;;;;19.94;57.00;96982.13;10187981;29;20068;-81
2022/05/22 00:51:32;;;;;;;0.50;0.50;;;;;;;19.94;56.77;96976.72;10188757;29;20059;-81
2022/05/22 00:57:06;;;;;;;0.50;0.50;;;;;;;19.94;56.90;96973.22;10183772;29;20488;-81
2022/05/22 01:02:26;;;;;;;0.60;0.60;;;;;;;19.94;56.87;96973.22;10170963;29;20056;-82
2022/05/22 01:07:46;;;;;;;0.47;0.47;;;;;;;19.93;56.87;96975.16;10197960;29;20048;-82
2022/05/22 01:13:07;;;;;;;0.75;0.60;;;;;;;19.93;56.81;96979.75;10198764;29;20049;-82
2022/05/22 01:18:27;;;;;;;0.63;0.63;;;;;;;19.92;56.78;96978.94;10195962;29;20059;-81
2022/05/22 01:23:47;;;;;;;0.52;0.52;;;;;;;19.91;56.78;96977.34;10183732;29;20052;-82
2022/05/22 01:29:13;;;;;;;0.65;0.60;;;;;;;19.91;56.75;96979.28;10169974;29;20063;-82
2022/05/22 01:34:33;;;;;;;0.52;0.52;;;;;;;19.91;56.62;96974.66;10179191;29;20059;-82
2022/05/22 01:39:53;;;;;;;0.40;0.40;;;;;;;19.92;56.80;96980.88;10181508;29;20052;-82
2022/05/22 01:45:16;;;;;;;0.50;0.50;;;;;;;19.90;56.88;96978.47;10166133;29;20055;-82
2022/05/22 01:50:38;;;;;;;0.50;0.50;;;;;;;19.90;56.70;96970.38;10178689;29;20052;-82
2022/05/22 01:55:58;;;;;;;0.70;0.70;;;;;;;19.90;56.58;96970.38;10173137;29;20470;-82
2022/05/22 02:01:18;;;;;;;0.45;0.45;;;;;;;19.91;56.74;96971.94;10192634;29;20503;-82
2022/05/22 02:08:19;;;;;;;0.50;0.50;;;;;;;19.89;56.77;96974.19;10197852;29;20496;-82
2022/05/22 02:12:22;;;;;;;0.60;0.60;;;;;;;19.89;56.65;96968.75;10178075;29;20064;-83
2022/05/22 02:17:42;;;;;;;0.60;0.60;;;;;;;19.89;56.70;96967.97;10179248;29;20071;-82
2022/05/22 02:23:02;;;;;;;0.55;0.50;;;;;;;19.88;56.78;96967.19;10182783;29;20135;-81
2022/05/22 02:28:24;;;;;;;0.50;0.50;;;;;;;19.87;56.67;96971.00;10178651;29;20059;-82
2022/05/22 02:33:47;;;;;;;0.65;0.65;;;;;;;19.87;56.59;96972.91;10182521;29;20490;-82
2022/05/22 02:39:08;;;;;;;0.65;0.60;;;;;;;19.87;56.69;96965.59;10188972;29;20058;-82
2022/05/22 02:44:28;;;;;;;0.70;0.60;;;;;;;19.87;56.75;96975.63;10186481;29;20056;-82
2022/05/22 02:49:48;;;;;;;0.60;0.60;;;;;;;19.88;56.71;96993.44;10186598;29;20051;-82
2022/05/22 02:55:08;;;;;;;0.60;0.60;;;;;;;19.87;56.62;96987.22;10177799;29;20492;-82
2022/05/22 03:00:30;;;;;;;0.50;0.50;;;;;;;19.86;56.53;96990.28;10200115;29;20051;-82
2022/05/22 03:11:29;;;;;;;0.75;0.75;;;;;;;19.84;56.54;96987.88;10201616;29;20059;-81
2022/05/22 03:16:49;;;;;;;0.57;0.57;;;;;;;19.84;56.61;96985.19;10190624;29;20067;-82
2022/05/22 03:22:17;;;;;;;0.50;0.50;;;;;;;19.85;56.60;96992.16;10187396;29;20045;-82
2022/05/22 03:27:36;;;;;;;1.00;0.50;;;;;;;19.84;56.55;96977.06;10187909;29;20060;-82
2022/05/22 03:32:57;;;;;;;1.02;0.50;;;;;;;19.85;56.53;96978.63;10202284;29;20052;-82
2022/05/22 03:38:17;;;;;;;0.60;0.60;;;;;;;19.85;56.49;96977.84;10196934;29;20645;-82
2022/05/22 03:43:36;;;;;;;0.60;0.60;;;;;;;19.84;56.46;96968.97;10186467;29;20053;-82
2022/05/22 03:48:57;;;;;;;0.50;0.50;;;;;;;19.85;56.52;96969.75;10193765;29;20060;-82
2022/05/22 03:54:24;;;;;;;0.65;0.50;;;;;;;19.86;56.57;96965.94;10198614;29;20052;-82
2022/05/22 03:59:48;;;;;;;0.60;0.60;;;;;;;19.86;56.47;96965.94;10189861;29;20052;-82
2022/05/22 04:05:08;;;;;;;0.43;0.43;;;;;;;19.86;56.47;96958.63;10186267;29;20102;-82
2022/05/22 04:10:28;;;;;;;0.60;0.60;;;;;;;19.89;56.44;96959.88;10184923;29;20060;-82
2022/05/22 04:15:48;;;;;;;0.52;0.50;;;;;;;19.91;56.45;96954.94;10176083;29;20058;-82
2022/05/22 04:21:09;;;;;;;0.60;0.60;;;;;;;19.94;56.43;96959.72;10183886;29;20048;-82
2022/05/22 04:26:47;;;;;;;0.60;0.60;;;;;;;19.92;56.41;96951.91;10177346;29;20056;-82
2022/05/22 04:32:07;;;;;;;0.60;0.60;;;;;;;19.94;56.43;96943.50;10199065;29;20476;-82
2022/05/22 04:37:47;;;;;;;0.52;0.52;;;;;;;19.98;56.46;96935.53;10198818;29;20048;-82
2022/05/22 04:43:09;;;;;;;0.50;0.50;;;;;;;20.00;56.48;96930.59;10182560;29;20040;-82
2022/05/22 04:48:29;;;;;;;0.60;0.60;;;;;;;20.02;56.28;96939.16;10198762;29;20056;-82
2022/05/22 04:53:54;;;;;;;0.50;0.50;;;;;;;20.03;56.10;96940.75;10195392;29;20418;-82
2022/05/22 04:59:17;;;;;;;0.77;0.60;;;;;;;20.04;56.17;96953.16;10154117;29;20048;-82
2022/05/22 05:04:36;;;;;;;1.17;0.70;;;;;;;20.07;56.28;96955.19;10170258;29;20056;-82
2022/05/22 05:10:10;;;;;;;0.60;0.60;;;;;;;20.07;56.32;96947.09;10175655;29;20067;-81
2022/05/22 05:15:41;;;;;;;0.70;0.70;;;;;;;20.07;56.15;96955.19;10175174;29;20087;-81
2022/05/22 05:21:15;;;;;;;0.57;0.57;;;;;;;20.08;56.19;96952.19;10171767;29;20080;-81
2022/05/22 05:26:37;;;;;;;0.60;0.60;;;;;;;20.08;56.34;96954.09;10172789;29;20059;-82
2022/05/22 05:32:02;;;;;;;0.60;0.60;;;;;;;20.08;56.03;96954.09;10170766;29;20062;-82
2022/05/22 05:37:23;;;;;;;0.55;0.55;;;;;;;20.08;56.02;96938.66;10181225;29;20048;-81
2022/05/22 05:42:52;;;;;;;0.47;0.47;;;;;;;20.07;56.16;96942.50;10159782;29;20059;-81
2022/05/22 05:48:13;;;;;;;0.60;0.60;;;;;;;20.08;56.16;96948.69;10199029;29;20052;-81
2022/05/22 05:53:38;;;;;;;0.50;0.50;;;;;;;20.08;56.13;96944.06;10196569;29;20115;-82
2022/05/22 05:59:16;;;;;;;0.47;0.47;;;;;;;20.09;56.17;96952.97;10171462;29;20114;-82
2022/05/22 06:04:42;;;;;;;0.60;0.60;;;;;;;20.09;56.24;96961.91;10172653;29;20052;-82
2022/05/22 06:10:04;;;;;;;0.52;0.52;;;;;;;20.10;56.27;96962.69;10169859;29;20063;-82
2022/05/22 06:15:34;;;;;;;0.45;0.45;;;;;;;20.09;56.31;96961.06;10185449;29;20063;-82
2022/05/22 06:20:53;;;;;;;0.50;0.50;;;;;;;20.09;56.34;96952.97;10193756;29;20052;-81
2022/05/22 06:26:20;;;;;;;0.60;0.60;;;;;;;20.08;56.39;96948.69;10183192;29;20060;-81
2022/05/22 06:31:48;;;;;;;0.43;0.43;;;;;;;20.10;56.20;96954.56;10170577;29;20063;-82
2022/05/22 06:37:25;;;;;;;0.50;0.50;;;;;;;20.09;56.43;96961.91;10177116;29;20056;-82
2022/05/22 06:43:11;;;;;;;0.50;0.50;;;;;;;20.05;56.09;96950.13;10173457;29;20071;-82
2022/05/22 06:48:40;;;;;;;0.65;0.65;;;;;;;19.93;54.92;96956.22;10191880;29;20060;-82
2022/05/22 06:54:18;;;;;;;0.52;0.52;;;;;;;19.75;53.53;96952.75;10195776;29;20052;-82
2022/05/22 07:00:06;;;;;;;0.55;0.50;;;;;;;19.59;51.74;96953.56;10179797;29;20052;-82
2022/05/22 07:05:41;;;;;;;0.50;0.50;;;;;;;19.43;50.09;96951.34;10192828;29;20059;-82
2022/05/22 07:11:41;;;;;;;0.50;0.50;;;;;;;19.32;49.16;96939.28;10169248;29;20055;-82
2022/05/22 07:17:30;;;;;;;0.57;0.45;;;;;;;19.34;50.14;96937.03;10130696;29;20056;-81
2022/05/22 07:23:12;;;;;;;0.45;0.45;;;;;;;19.34;50.96;96928.94;10163257;29;20059;-82
2022/05/22 07:29:01;;;;;;;;;;;;;;;19.45;53.12;96922.09;10144563;29;20064;-82
2022/05/22 07:34:42;;;;;;;0.43;0.43;;;;;;;19.54;53.72;96906.66;10191711;29;19930;-82
2022/05/22 07:40:16;;;;;;;0.52;0.52;;;;;;;19.61;54.20;96898.06;10198105;29;20052;-82
2022/05/22 07:46:11;;;;;;;0.50;0.50;;;;;;;19.68;54.31;96898.38;10178921;29;20491;-82
2022/05/22 07:51:45;;;;;;;0.63;0.50;;;;;;;19.69;54.40;96891.84;10191813;29;20456;-82
2022/05/22 07:57:25;;;;;;;2.53;0.40;;;;;;;19.71;54.54;96891.53;10189679;29;20123;-82
2022/05/22 08:03:14;;;;;;;0.50;0.50;;;;;;;19.68;53.99;96889.44;10166363;29;20066;-82
2022/05/22 08:08:39;;;;;;;0.40;0.40;;;;;;;19.66;54.41;96883.56;10173363;29;20067;-82
2022/05/22 08:14:09;;;;;;;0.55;0.40;;;;;;;19.62;54.26;96877.22;10172097;29;20542;-82
2022/05/22 08:19:33;;;;;;;0.50;0.50;;;;;;;19.60;54.47;96872.16;10200579;29;20492;-82
2022/05/22 08:25:19;;;;;;;0.50;0.50;;;;;;;19.62;54.89;96853.72;10186356;29;20056;-82
2022/05/22 08:30:39;;;;;;;0.50;0.50;;;;;;;19.66;55.05;96857.34;10164180;29;20460;-82
2022/05/22 08:35:59;;;;;;;0.77;0.60;;;;;;;19.71;55.36;96849.09;10196406;29;20074;-82
2022/05/22 08:41:21;;;;;;;0.50;0.50;;;;;;;19.70;55.33;96850.19;10199106;29;20048;-82
2022/05/22 08:47:06;;;;;;;0.52;0.50;;;;;;;19.70;55.50;96841.28;10200992;29;20540;-82
2022/05/22 08:52:47;;;;;;;0.40;0.40;;;;;;;19.69;55.01;96837.00;10201607;29;20048;-82
2022/05/22 09:03:58;;;;;;;0.50;0.50;;;;;;;19.67;55.05;96844.63;10187165;29;20131;-81
2022/05/22 09:09:17;;;;;;;0.40;0.40;;;;;;;19.64;54.93;96831.75;10183503;29;20059;-82
2022/05/22 09:14:52;;;;;;;0.50;0.50;;;;;;;19.64;54.81;96832.56;10169606;29;20451;-82
2022/05/22 09:20:19;;;;;;;0.40;0.40;;;;;;;19.64;54.96;96826.34;10200403;29;20056;-82
2022/05/22 09:25:46;;;;;;;0.50;0.50;;;;;;;19.64;54.93;96837.16;10183818;29;20085;-81
2022/05/22 09:31:16;;;;;;;0.40;0.40;;;;;;;19.58;55.23;96854.66;10181155;29;20063;-82
2022/05/22 09:37:08;;;;;;;0.50;0.50;;;;;;;19.59;55.53;96846.25;10197408;29;20466;-82
2022/05/22 09:42:55;;;;;;;0.50;0.50;;;;;;;19.62;55.71;96837.50;10193901;29;20077;-82
2022/05/22 09:48:42;;;;;;;0.40;0.40;;;;;;;19.66;55.78;96840.34;10194337;29;20062;-82
2022/05/22 09:54:23;;;;;;;0.50;0.50;;;;;;;19.67;55.80;96829.19;10195613;29;20053;-82
2022/05/22 10:00:03;;;;;;;0.50;0.50;;;;;;;19.67;55.58;96825.72;10194644;29;20056;-82
2022/05/22 10:05:40;;;;;;;0.40;0.40;;;;;;;19.62;54.83;96823.19;10194307;29;20059;-81
2022/05/22 10:11:26;;;;;;;0.40;0.40;;;;;;;19.59;54.96;96821.13;10198363;29;20052;-82
2022/05/22 10:17:04;;;;;;;0.40;0.40;;;;;;;19.58;55.33;96817.63;10187001;29;20056;-81
2022/05/22 10:22:43;;;;;;;0.47;0.47;;;;;;;19.62;55.70;96813.19;10190651;29;20153;-81
2022/05/22 10:28:05;;;;;;;;;;;;;;;19.63;55.94;96819.38;10184041;29;20063;-81
2022/05/22 10:33:35;;;;;;;0.50;0.50;;;;;;;19.65;55.92;96830.66;10193904;29;19923;-82
2022/05/22 10:39:04;;;;;;;0.50;0.50;;;;;;;19.66;56.10;96833.03;10167100;29;20518;-81
2022/05/22 10:44:27;;;;;;;0.40;0.40;;;;;;;19.66;55.96;96830.34;10163515;29;20058;-82
2022/05/22 10:49:47;;;;;;;0.43;0.43;;;;;;;19.69;55.90;96818.06;10180111;29;20107;-82
2022/05/22 10:55:21;;;;;;;0.40;0.40;;;;;;;19.63;55.30;96805.88;10192874;29;20107;-82
2022/05/22 11:00:57;;;;;;;0.50;0.50;;;;;;;19.53;53.94;96802.41;10184401;29;20052;-82
2022/05/22 11:06:20;;;;;;;0.40;0.40;;;;;;;19.40;53.17;96797.97;10226239;29;20483;-82
2022/05/22 11:11:40;;;;;;;0.65;0.55;;;;;;;19.34;53.51;96783.06;10225895;29;20044;-82
2022/05/22 11:17:20;;;;;;;0.43;0.43;;;;;;;19.37;54.79;96777.03;10216479;29;20506;-82
2022/05/22 11:23:22;;;;;;;0.50;0.50;;;;;;;19.45;55.61;96776.19;10199729;29;20062;-81
2022/05/22 11:28:57;;;;;;;0.40;0.40;;;;;;;19.51;55.76;96776.81;10184237;29;20060;-82
2022/05/22 11:34:35;;;;;;;0.40;0.40;;;;;;;19.54;56.08;96770.75;10183526;29;20051;-82
2022/05/22 11:40:20;;;;;;;0.30;0.30;;;;;;;19.56;55.88;96772.03;10242230;29;20558;-82
2022/05/22 11:45:54;;;;;;;0.40;0.40;;;;;;;19.61;55.84;96751.34;10227567;29;20048;-82
2022/05/22 11:51:19;;;;;;;0.40;0.40;;;;;;;19.62;55.97;96744.81;10222476;29;20095;-82
2022/05/22 11:56:58;;;;;;;0.40;0.40;;;;;;;19.58;55.66;96746.59;10240028;29;20060;-82
2022/05/22 12:02:46;;;;;;;0.43;0.43;;;;;;;19.51;55.41;96741.69;10224200;29;20526;-82
2022/05/22 12:08:38;;;;;;;0.40;0.40;;;;;;;19.47;55.53;96746.94;10223413;29;20066;-82
2022/05/22 12:14:22;;;;;;;0.45;0.45;;;;;;;19.49;55.92;96744.72;10235855;29;20551;-82
2022/05/22 12:19:54;;;;;;;0.40;0.40;;;;;;;19.50;56.10;96732.81;10239750;29;20136;-82
2022/05/22 12:25:17;;;;;;;0.38;0.38;;;;;;;19.54;56.13;96716.72;10186313;29;20067;-82
2022/05/22 12:30:38;;;;;;;0.40;0.40;;;;;;;19.57;56.29;96718.78;10181274;29;20063;-82
2022/05/22 12:35:58;;;;;;;0.30;0.30;;;;;;;19.59;56.10;96702.25;10196525;29;20086;-81
2022/05/22 12:41:37;;;;;;;0.40;0.40;;;;;;;19.54;55.87;96709.41;10169422;29;20056;-82
2022/05/22 12:46:57;;;;;;;0.30;0.30;;;;;;;19.51;56.09;96710.06;10196542;29;20056;-82
2022/05/22 12:52:31;;;;;;;0.30;0.30;;;;;;;19.50;56.15;96688.75;10183991;29;20071;-82
2022/05/22 12:57:53;;;;;;;0.45;0.45;;;;;;;19.52;56.25;96690.03;10181388;29;20056;-82
2022/05/22 13:03:23;;;;;;;0.50;0.50;;;;;;;19.53;56.35;96691.59;10179782;29;20048;-82
2022/05/22 13:08:45;;;;;;;0.30;0.30;;;;;;;19.54;56.29;96681.59;10179600;29;20056;-82
2022/05/22 13:14:05;;;;;;;0.38;0.38;;;;;;;19.54;55.96;96684.28;10180677;29;20052;-82
2022/05/22 13:19:27;;;;;;;0.38;0.38;;;;;;;19.54;55.95;96685.09;10182950;29;20056;-82
2022/05/22 13:24:50;;;;;;;0.40;0.40;;;;;;;19.53;55.93;96675.41;10193807;29;20056;-82
2022/05/22 13:30:23;;;;;;;0.40;0.40;;;;;;;19.52;55.77;96673.00;10166729;29;20419;-82
2022/05/22 13:36:12;;;;;;;0.47;0.47;;;;;;;19.49;55.66;96668.28;10194002;29;20060;-82
2022/05/22 13:41:41;;;;;;;0.40;0.40;;;;;;;19.49;56.10;96669.06;10180620;29;20059;-82
2022/05/22 13:47:22;;;;;;;0.40;0.40;;;;;;;19.51;55.89;96661.41;10194618;29;20067;-81
2022/05/22 13:53:00;;;;;;;0.30;0.30;;;;;;;19.51;55.87;96656.03;10194895;29;20052;-81
2022/05/22 13:58:26;;;;;;;0.50;0.50;;;;;;;19.52;55.38;96648.69;10182345;29;20089;-82
2022/05/22 14:04:00;;;;;;;0.30;0.30;;;;;;;19.47;54.51;96635.41;10176698;29;20063;-82
2022/05/22 14:09:26;;;;;;;0.40;0.40;;;;;;;19.42;53.34;96647.16;10193471;29;20111;-82
2022/05/22 14:14:46;;;;;;;0.40;0.40;;;;;;;19.38;54.47;96640.84;10185756;29;20119;-82
2022/05/22 14:20:18;;;;;;;0.40;0.40;;;;;;;19.43;54.89;96635.25;10164187;29;20063;-82
2022/05/22 14:25:41;;;;;;;0.40;0.40;;;;;;;19.47;55.07;96621.88;10187900;29;20052;-82
2022/05/22 14:31:01;;;;;;;0.40;0.40;;;;;;;19.50;55.33;96623.91;10193612;29;20056;-82
2022/05/22 14:36:21;;;;;;;0.30;0.30;;;;;;;19.52;55.75;96627.91;10191569;29;20058;-82
2022/05/22 14:41:41;;;;;;;0.40;0.40;;;;;;;19.51;54.96;96618.19;10176998;29;20107;-82
2022/05/22 14:47:03;;;;;;;0.30;0.30;;;;;;;19.47;54.07;96609.16;10163996;29;20052;-82
2022/05/22 14:52:30;;;;;;;0.30;0.30;;;;;;;19.40;52.37;96616.19;10179985;29;20060;-82
2022/05/22 14:58:07;;;;;;;0.28;0.28;;;;;;;19.34;52.32;96616.38;10191395;29;20059;-82
2022/05/22 15:03:45;;;;;;;0.30;0.30;;;;;;;19.34;51.96;96613.69;10189759;29;20044;-82
2022/05/22 15:09:05;;;;;;;;;;;;;;;19.34;50.84;96604.78;10163344;29;20070;-82
2022/05/22 15:14:27;;;;;;;0.30;0.30;;;;;;;19.32;51.51;96610.50;10173817;29;19923;-82
2022/05/22 15:19:52;;;;;;;0.45;0.45;;;;;;;19.35;51.91;96606.38;10189552;29;20082;-82
2022/05/22 15:25:33;;;;;;;0.40;0.40;;;;;;;19.33;51.63;96598.59;10176236;29;20048;-82
2022/05/22 15:30:59;;;;;;;0.30;0.30;;;;;;;19.34;51.65;96594.78;10174239;29;20396;-82
2022/05/22 15:36:30;;;;;;;0.30;0.30;;;;;;;19.33;51.26;96589.72;10191883;29;20048;-82
2022/05/22 15:41:49;;;;;;;0.40;0.40;;;;;;;19.34;51.62;96585.88;10180351;29;20056;-82
2022/05/22 15:47:23;;;;;;;0.40;0.40;;;;;;;19.34;52.11;96585.88;10198954;29;20056;-82
2022/05/22 15:52:49;;;;;;;0.22;0.22;;;;;;;19.37;52.65;96585.25;10186712;29;20062;-82
2022/05/22 15:58:10;;;;;;;0.32;0.32;;;;;;;19.37;52.34;96579.84;10184304;29;20056;-82
2022/05/22 16:03:30;;;;;;;0.30;0.30;;;;;;;19.38;52.49;96570.59;10198306;29;20052;-82
2022/05/22 16:08:49;;;;;;;0.30;0.30;;;;;;;19.38;51.87;96581.41;10197788;29;20059;-82
2022/05/22 16:14:12;;;;;;;0.30;0.30;;;;;;;19.35;51.36;96576.69;10163874;29;20551;-82
2022/05/22 16:19:35;;;;;;;0.32;0.32;;;;;;;19.30;50.37;96574.16;10159593;29;20052;-82
2022/05/22 16:24:55;;;;;;;0.35;0.35;;;;;;;19.23;49.59;96565.78;10196240;29;20048;-82
2022/05/22 16:30:16;;;;;;;0.30;0.30;;;;;;;19.21;49.96;96574.22;10182885;29;20056;-82
2022/05/22 16:35:37;;;;;;;0.30;0.30;;;;;;;19.25;50.98;96579.75;10194616;29;20048;-82
2022/05/22 16:40:57;;;;;;;0.30;0.30;;;;;;;19.29;52.19;96583.41;10181453;29;20044;-82
2022/05/22 16:46:22;;;;;;;0.30;0.30;;;;;;;19.33;52.57;96582.41;10180296;29;20084;-82
2022/05/22 16:57:24;;;;;;;0.40;0.40;;;;;;;19.36;52.71;96583.66;10181329;29;20415;-82
2022/05/22 17:02:43;;;;;;;0.40;0.40;;;;;;;19.32;52.16;96597.00;10179935;29;20099;-82
2022/05/22 17:08:03;;;;;;;0.45;0.45;;;;;;;19.28;51.56;96592.59;10179214;29;20107;-82
2022/05/22 17:13:23;;;;;;;0.28;0.28;;;;;;;19.19;50.66;96600.75;10176767;29;20074;-82
2022/05/22 17:18:43;;;;;;;0.30;0.30;;;;;;;19.11;50.36;96597.00;10195638;29;20488;-82
2022/05/22 17:24:03;;;;;;;0.32;0.32;;;;;;;19.13;51.34;96597.47;10190275;29;20052;-82
2022/05/22 17:29:23;;;;;;;0.40;0.40;;;;;;;19.17;51.93;96594.91;10177606;29;20513;-81
2022/05/22 17:34:46;;;;;;;0.30;0.30;;;;;;;19.20;52.50;96596.16;10166493;29;20056;-82
2022/05/22 17:40:32;;;;;;;0.40;0.40;;;;;;;19.22;52.81;96600.09;10179737;29;20563;-82
2022/05/22 17:45:52;;;;;;;0.30;0.30;;;;;;;19.23;52.70;96604.41;10193651;29;20060;-82
2022/05/22 17:51:18;;;;;;;0.60;0.60;;;;;;;19.22;52.78;96602.78;10157565;29;20049;-82
2022/05/22 17:56:38;;;;;;;1.45;0.52;;;;;;;19.25;52.82;96599.47;10181907;29;20048;-82
2022/05/22 18:01:58;;;;;;;1.17;0.80;;;;;;;19.26;52.54;96601.03;10194360;29;20060;-82
2022/05/22 18:07:26;;;;;;;3.42;0.70;;;;;;;19.28;52.43;96600.69;10173820;29;20052;-82
2022/05/22 18:18:24;;;;;;;3.65;1.20;;;;;;;19.29;50.35;96594.97;10175429;29;20148;-81
2022/05/22 18:23:50;;;;;;;3.45;1.30;;;;;;;19.23;47.75;96595.47;10178595;29;20076;-81
2022/05/22 18:29:10;;;;;;;3.50;1.08;;;;;;;19.17;46.13;96594.91;10194956;29;20063;-81
2022/05/22 18:34:29;;;;;;;2.03;1.05;;;;;;;19.15;46.50;96605.22;10170545;29;20059;-83
2022/05/22 18:39:48;;;;;;;3.47;1.25;;;;;;;19.11;45.87;96598.88;10168291;29;20054;-82
2022/05/22 18:45:10;;;;;;;2.38;1.10;;;;;;;19.06;45.41;96591.75;10178108;29;20052;-83
2022/05/22 18:50:29;;;;;;;1.52;1.05;;;;;;;19.02;45.11;96596.22;10182672;29;20048;-81
2022/05/22 18:55:49;;;;;;;3.38;1.00;;;;;;;18.98;44.60;96603.41;10187428;29;20063;-83
2022/05/22 19:01:10;;;;;;;2.53;1.27;;;;;;;19.02;45.57;96607.03;10183565;29;20055;-83
2022/05/22 19:06:29;;;;;;;3.60;1.10;;;;;;;19.07;46.26;96609.56;10181718;29;20461;-82
2022/05/22 19:11:53;;;;;;;6.95;2.50;;;;;;;19.02;44.45;96617.84;10183553;29;20048;-83
2022/05/22 19:17:18;;;;;;;3.47;1.27;;;;;;;18.92;43.39;96626.31;10171910;29;20559;-82
2022/05/22 19:22:38;;;;;;;2.67;1.30;;;;;;;18.81;43.33;96619.66;10193398;29;20480;-82
2022/05/22 19:27:57;;;;;;;3.75;1.40;;;;;;;18.67;43.42;96626.03;10189533;29;20515;-81
2022/05/22 19:33:20;;;;;;;3.17;1.20;;;;;;;18.66;44.05;96620.94;10180518;29;20530;-81
2022/05/22 19:38:42;;;;;;;2.78;1.17;;;;;;;18.78;44.93;96619.16;10191021;29;20048;-81
2022/05/22 19:44:02;;;;;;;1.80;1.08;;;;;;;18.87;45.52;96616.44;10180409;29;20056;-81
2022/05/22 19:49:21;;;;;;;2.63;1.00;;;;;;;18.93;46.08;96620.59;10200109;29;20064;-81
2022/05/22 20:00:22;;;;;;;2.17;0.93;;;;;;;19.00;46.42;96611.97;10195236;29;20055;-81
2022/05/22 20:05:43;;;;;;;2.45;1.20;;;;;;;19.03;46.79;96613.22;10196729;29;20047;-81
2022/05/22 20:11:10;;;;;;;2.45;1.17;;;;;;;19.03;47.11;96616.69;10184898;29;20052;-81
2022/05/22 20:16:33;;;;;;;2.58;0.98;;;;;;;19.04;47.31;96615.59;10167984;29;20060;-81
2022/05/22 20:21:53;;;;;;;1.58;1.10;;;;;;;19.06;47.69;96601.78;10179041;29;20062;-83
2022/05/22 20:27:13;;;;;;;2.45;1.00;;;;;;;19.09;47.67;96607.31;10157352;29;20056;-82
2022/05/22 20:32:32;;;;;;;2.08;1.00;;;;;;;19.09;48.08;96612.72;10175711;29;20051;-82
2022/05/22 20:37:51;;;;;;;1.95;0.90;;;;;;;19.08;48.26;96600.34;10159769;29;20056;-82
2022/05/22 20:43:11;;;;;;;1.17;0.90;;;;;;;19.09;48.52;96593.00;10178668;29;20055;-82
2022/05/22 20:48:32;;;;;;;1.73;0.93;;;;;;;19.09;48.59;96596.53;10169249;29;20056;-82
2022/05/22 20:53:52;;;;;;;1.63;1.00;;;;;;;19.08;48.72;96584.13;10183915;29;20452;-82
2022/05/22 20:59:12;;;;;;;1.88;1.10;;;;;;;19.09;48.98;96585.72;10175444;29;20048;-82
2022/05/22 21:04:35;;;;;;;1.60;0.90;;;;;;;19.09;49.15;96580.31;10177610;29;20559;-82
2022/05/22 21:09:58;;;;;;;1.75;1.05;;;;;;;19.09;49.22;96585.72;10177288;29;20044;-82
2022/05/22 21:15:17;;;;;;;1.30;0.85;;;;;;;19.08;49.34;96584.13;10119957;29;1220345;-82
2022/05/22 21:20:37;;;;;;;0.90;0.80;;;;;;;19.09;49.45;96568.72;10178451;29;20071;-82
2022/05/22 21:31:34;;;;;;;1.30;0.80;;;;;;;19.10;49.54;96570.31;10184249;29;20055;-81
2022/05/22 21:36:54;;;;;;;1.42;0.90;;;;;;;19.10;49.66;96570.31;10167049;29;20060;-82
2022/05/22 21:42:13;;;;;;;1.55;0.93;;;;;;;19.09;49.84;96577.63;10177654;29;20044;-82
2022/05/22 21:47:33;;;;;;;1.33;0.90;;;;;;;19.09;49.94;96580.31;10189636;29;20048;-82
2022/05/22 21:52:53;;;;;;;1.90;1.02;;;;;;;19.09;49.82;96577.63;10167136;29;20055;-82
2022/05/22 21:58:14;;;;;;;1.08;0.75;;;;;;;19.09;49.88;96585.72;10160076;29;20067;-82
2022/05/22 22:03:38;;;;;;;1.80;1.02;;;;;;;19.08;49.88;96584.13;10186007;29;20067;-82
2022/05/22 22:08:57;;;;;;;1.70;0.90;;;;;;;19.09;49.97;96580.31;10189294;29;20062;-82
2022/05/22 22:14:17;;;;;;;0.90;0.70;;;;;;;19.10;50.13;96581.13;10173336;29;20063;-82
2022/05/22 22:19:36;;;;;;;1.48;0.90;;;;;;;19.08;50.13;96577.94;10188860;29;20063;-82
2022/05/22 22:24:55;;;;;;;1.17;0.90;;;;;;;19.09;50.08;96580.31;10189582;29;20052;-82
2022/05/22 22:30:15;;;;;;;2.13;0.80;;;;;;;19.09;50.09;96574.13;10173468;29;20115;-82
2022/05/22 22:35:35;;;;;;;1.95;1.00;;;;;;;19.08;50.21;96572.53;10178764;29;20074;-81
2022/05/22 22:40:54;;;;;;;0.80;0.80;;;;;;;19.07;50.10;96571.75;10190634;29;20551;-82
2022/05/22 22:46:13;;;;;;;1.00;0.90;;;;;;;19.08;50.21;96572.53;10187652;29;20044;-82
2022/05/22 22:51:33;;;;;;;2.17;0.77;;;;;;;19.07;50.42;96577.16;10159256;29;20036;-82
2022/05/22 23:02:31;;;;;;;0.68;0.68;;;;;;;19.07;50.47;96571.75;10171926;29;20049;-82
2022/05/22 23:07:50;;;;;;;0.80;0.80;;;;;;;19.07;50.50;96573.66;10192360;29;20052;-82
2022/05/22 23:13:12;;;;;;;0.73;0.73;;;;;;;19.07;50.43;96574.47;10195555;29;20052;-82
2022/05/22 23:18:33;;;;;;;1.38;0.80;;;;;;;19.08;50.62;96567.16;10179349;29;20048;-82
2022/05/22 23:23:53;;;;;;;0.60;0.60;;;;;;;19.07;50.66;96565.56;10193386;29;20452;-82
2022/05/22 23:29:12;;;;;;;0.65;0.65;;;;;;;19.07;50.72;96560.97;10196577;29;20056;-82
2022/05/22 23:34:31;;;;;;;1.13;0.77;;;;;;;19.06;50.49;96553.97;10170714;29;20063;-82
2022/05/22 23:39:53;;;;;;;0.82;0.70;;;;;;;19.06;50.59;96553.97;10168301;29;20431;-82
2022/05/22 23:45:13;;;;;;;0.70;0.60;;;;;;;19.06;50.66;96556.66;10177905;29;20108;-82
2022/05/22 23:50:33;;;;;;;0.85;0.80;;;;;;;19.06;50.72;96556.66;10175342;29;20056;-82
2022/05/22 23:55:53;;;;;;;1.08;0.70;;;;;;;19.05;50.72;96551.59;10196085;29;20056;-82
